TimeCDT,TemperatureF,Dew PointF,Humidity,Sea Level PressureIn,VisibilityMPH,Wind Direction,Wind SpeedMPH,Gust SpeedMPH,PrecipitationIn,Events,Conditions,WindDirDegrees,DateUTC
12:15 AM,25.2,20.3,82,30.09,10.0,North,11.5,-,N/A,,Overcast,360,2013-03-26 05:15:00
12:35 AM,25.2,19.9,81,30.09,10.0,North,8.1,-,N/A,,Overcast,350,2013-03-26 05:35:00
12:55 AM,24.3,19.2,81,30.09,10.0,NNW,8.1,-,N/A,,Mostly Cloudy,330,2013-03-26 05:55:00
1:15 AM,23.9,19.2,82,30.09,10.0,NNW,6.9,-,N/A,,Mostly Cloudy,330,2013-03-26 06:15:00
1:35 AM,23.9,19.4,83,30.09,10.0,NNW,9.2,-,N/A,,Overcast,330,2013-03-26 06:35:00
1:55 AM,23.9,19.4,83,30.09,10.0,NNW,9.2,-,N/A,,Overcast,330,2013-03-26 06:55:00
2:15 AM,23.9,19.2,82,30.09,10.0,NNW,9.2,-,N/A,,Overcast,330,2013-03-26 07:15:00
2:35 AM,24.3,18.9,80,30.09,10.0,NNW,11.5,-,N/A,,Overcast,340,2013-03-26 07:35:00
2:55 AM,24.4,18.5,78,30.08,10.0,NNW,11.5,-,N/A,,Overcast,340,2013-03-26 07:55:00
3:15 AM,24.3,18.3,78,30.09,10.0,North,9.2,-,N/A,,Overcast,350,2013-03-26 08:15:00
3:35 AM,24.3,18.3,78,30.09,10.0,North,10.4,-,N/A,,Overcast,350,2013-03-26 08:35:00
3:55 AM,24.1,18.5,79,30.09,10.0,North,9.2,-,N/A,,Overcast,350,2013-03-26 08:55:00
4:15 AM,24.3,18.9,80,30.09,10.0,North,9.2,-,N/A,,Overcast,350,2013-03-26 09:15:00
4:35 AM,24.1,19.0,81,30.09,10.0,NNW,10.4,-,N/A,,Overcast,340,2013-03-26 09:35:00
4:55 AM,23.9,19.4,83,30.10,10.0,NNW,9.2,-,N/A,,Overcast,340,2013-03-26 09:55:00
5:15 AM,24.4,19.8,82,30.10,10.0,NNW,9.2,-,N/A,,Overcast,340,2013-03-26 10:15:00
5:35 AM,24.4,19.9,83,30.10,10.0,NNW,9.2,-,N/A,,Overcast,340,2013-03-26 10:35:00
5:55 AM,24.6,20.3,84,30.11,10.0,North,10.4,-,N/A,,Overcast,350,2013-03-26 10:55:00
6:15 AM,24.8,20.8,85,30.11,10.0,NNW,9.2,-,N/A,,Overcast,340,2013-03-26 11:15:00
6:35 AM,24.8,21.0,86,30.12,10.0,NNW,9.2,-,N/A,,Overcast,340,2013-03-26 11:35:00
6:55 AM,25.0,21.2,86,30.12,10.0,NNW,9.2,-,N/A,,Overcast,340,2013-03-26 11:55:00
7:15 AM,25.2,21.2,85,30.13,10.0,NNW,9.2,-,N/A,,Overcast,340,2013-03-26 12:15:00
7:35 AM,25.3,21.6,86,30.14,10.0,North,8.1,-,N/A,,Overcast,350,2013-03-26 12:35:00
7:55 AM,25.7,21.9,86,30.14,10.0,North,6.9,-,N/A,,Overcast,350,2013-03-26 12:55:00
8:15 AM,26.1,22.5,86,30.14,10.0,NNW,8.1,-,N/A,,Overcast,340,2013-03-26 13:15:00
8:35 AM,26.6,22.8,86,30.15,10.0,NNW,8.1,-,N/A,,Overcast,340,2013-03-26 13:35:00
8:55 AM,27.3,23.0,84,30.15,10.0,North,8.1,-,N/A,,Overcast,350,2013-03-26 13:55:00
9:15 AM,27.9,23.0,82,30.15,10.0,NNW,8.1,-,N/A,,Overcast,340,2013-03-26 14:15:00
9:35 AM,28.4,23.4,81,30.15,10.0,NNW,9.2,-,N/A,,Overcast,340,2013-03-26 14:35:00
9:55 AM,28.9,23.5,80,30.16,10.0,NNW,11.5,-,N/A,,Overcast,340,2013-03-26 14:55:00
10:15 AM,29.5,23.7,79,30.16,10.0,NNW,10.4,-,N/A,,Overcast,340,2013-03-26 15:15:00
10:35 AM,30.2,23.5,76,30.16,10.0,NNW,11.5,-,N/A,,Overcast,340,2013-03-26 15:35:00
10:55 AM,31.5,23.9,74,30.16,10.0,NNW,11.5,-,N/A,,Overcast,340,2013-03-26 15:55:00
11:15 AM,32.0,23.7,71,30.16,10.0,North,9.2,-,N/A,,Overcast,350,2013-03-26 16:15:00
11:35 AM,32.4,23.7,70,30.16,10.0,NNW,11.5,-,N/A,,Overcast,340,2013-03-26 16:35:00
11:55 AM,32.9,23.7,69,30.16,10.0,NNW,10.4,-,N/A,,Overcast,340,2013-03-26 16:55:00
12:15 PM,33.8,23.7,67,30.16,10.0,NNW,9.2,-,N/A,,Overcast,340,2013-03-26 17:15:00
12:35 PM,34.2,23.5,65,30.16,10.0,NNW,11.5,-,N/A,,Overcast,340,2013-03-26 17:35:00
12:55 PM,34.7,23.0,62,30.15,10.0,NNW,10.4,-,N/A,,Overcast,340,2013-03-26 17:55:00
1:15 PM,34.9,22.8,61,30.15,10.0,NNW,9.2,-,N/A,,Overcast,340,2013-03-26 18:15:00
1:35 PM,35.1,21.7,58,30.15,10.0,North,8.1,-,N/A,,Overcast,350,2013-03-26 18:35:00
1:55 PM,35.1,21.7,58,30.15,10.0,NNW,6.9,-,N/A,,Overcast,340,2013-03-26 18:55:00
2:15 PM,34.7,23.0,62,30.15,10.0,North,6.9,-,N/A,,Overcast,360,2013-03-26 19:15:00
2:35 PM,34.7,22.6,61,30.15,10.0,North,8.1,-,N/A,,Overcast,360,2013-03-26 19:35:00
2:55 PM,35.1,21.9,59,30.15,10.0,North,9.2,-,N/A,,Overcast,360,2013-03-26 19:55:00
3:15 PM,33.4,25.5,73,30.15,10.0,NE,6.9,-,N/A,,Overcast,40,2013-03-26 20:15:00
3:35 PM,34.0,23.4,65,30.15,10.0,North,8.1,-,N/A,,Overcast,360,2013-03-26 20:35:00
3:55 PM,34.7,21.6,59,30.15,10.0,NNW,10.4,-,N/A,,Overcast,340,2013-03-26 20:55:00
4:15 PM,34.7,21.6,59,30.15,10.0,North,9.2,-,N/A,,Overcast,350,2013-03-26 21:15:00
4:35 PM,34.7,20.3,56,30.15,10.0,NNW,10.4,-,N/A,,Overcast,330,2013-03-26 21:35:00
4:55 PM,35.1,19.9,54,30.15,10.0,NW,8.1,-,N/A,,Overcast,310,2013-03-26 21:55:00
5:15 PM,34.7,21.6,59,30.15,10.0,NW,9.2,-,N/A,,Overcast,310,2013-03-26 22:15:00
5:35 PM,34.7,21.9,60,30.16,10.0,NW,9.2,-,N/A,,Overcast,310,2013-03-26 22:35:00
5:55 PM,34.2,21.7,60,30.16,10.0,NW,9.2,-,N/A,,Overcast,320,2013-03-26 22:55:00
6:15 PM,34.0,21.6,60,30.16,10.0,NW,6.9,-,N/A,,Overcast,310,2013-03-26 23:15:00
6:35 PM,33.8,21.7,61,30.17,10.0,NNW,6.9,-,N/A,,Overcast,330,2013-03-26 23:35:00
6:55 PM,33.3,21.9,63,30.17,10.0,NNW,8.1,-,N/A,,Overcast,330,2013-03-26 23:55:00
7:15 PM,33.1,21.6,63,30.17,10.0,NNW,10.4,-,N/A,,Overcast,340,2013-03-27 00:15:00
7:35 PM,32.9,21.6,63,30.17,10.0,NNW,10.4,-,N/A,,Overcast,340,2013-03-27 00:35:00
7:55 PM,32.5,22.3,66,30.18,10.0,NNW,8.1,-,N/A,,Overcast,330,2013-03-27 00:55:00
8:15 PM,32.4,22.3,66,30.18,10.0,NNW,9.2,-,N/A,,Overcast,340,2013-03-27 01:15:00
8:35 PM,32.0,23.0,69,30.19,10.0,NNW,8.1,-,N/A,,Overcast,330,2013-03-27 01:35:00
8:55 PM,32.0,22.3,67,30.19,10.0,NNW,6.9,-,N/A,,Overcast,340,2013-03-27 01:55:00
9:15 PM,32.0,22.6,68,30.20,10.0,North,6.9,-,N/A,,Overcast,350,2013-03-27 02:15:00
9:35 PM,31.8,22.1,67,30.20,10.0,NNW,6.9,-,N/A,,Overcast,340,2013-03-27 02:35:00
9:55 PM,31.6,21.9,67,30.20,10.0,North,8.1,-,N/A,,Overcast,350,2013-03-27 02:55:00
10:15 PM,31.6,21.7,67,30.20,10.0,North,5.8,-,N/A,,Overcast,350,2013-03-27 03:15:00
10:35 PM,31.1,21.7,68,30.20,10.0,NNW,5.8,-,N/A,,Overcast,340,2013-03-27 03:35:00
10:55 PM,30.9,21.9,69,30.20,10.0,NNW,4.6,-,N/A,,Overcast,340,2013-03-27 03:55:00
11:15 PM,30.4,21.7,70,30.20,10.0,NNW,4.6,-,N/A,,Overcast,330,2013-03-27 04:15:00
11:35 PM,29.5,21.2,71,30.20,10.0,NW,4.6,-,N/A,,Overcast,320,2013-03-27 04:35:00
11:55 PM,29.7,21.0,70,30.20,10.0,NW,4.6,-,N/A,,Overcast,310,2013-03-27 04:55:00